createdAt,value
2023-05-05T00:00:04.186Z,78.22
2023-05-05T00:02:31.645Z,78.75
2023-05-05T00:05:00.447Z,78.62
2023-05-05T00:07:27.898Z,79.37
2023-05-05T00:09:55.625Z,80.39
2023-05-05T00:12:23.047Z,79.88
2023-05-05T00:14:50.391Z,79.90
2023-05-05T00:17:17.915Z,79.66
2023-05-05T00:19:45.344Z,79.59
2023-05-05T00:22:14.110Z,79.48
2023-05-05T00:24:41.643Z,80.48
2023-05-05T00:27:09.022Z,80.66
2023-05-05T00:29:36.385Z,80.80
2023-05-05T00:32:03.778Z,81.70
2023-05-05T00:34:31.789Z,81.69
2023-05-05T00:36:59.162Z,81.89
2023-05-05T00:39:27.883Z,81.85
2023-05-05T00:41:55.250Z,82.91
2023-05-05T00:44:37.838Z,83.30
2023-05-05T00:47:05.359Z,83.98
2023-05-05T00:49:33.840Z,83.78
2023-05-05T00:52:01.296Z,84.60
2023-05-05T00:54:30.475Z,83.08
2023-05-05T00:56:58.017Z,82.36
2023-05-05T00:59:25.789Z,80.56
2023-05-05T01:01:53.236Z,80.73
2023-05-05T01:04:20.687Z,79.86
2023-05-05T01:06:54.809Z,79.82
2023-05-05T01:09:31.124Z,79.32
2023-05-05T01:12:11.291Z,80.46
2023-05-05T01:14:41.990Z,79.28
2023-05-05T01:17:17.032Z,78.76
2023-05-05T01:20:07.813Z,78.61
2023-05-05T01:22:40.584Z,78.92
2023-05-05T01:25:27.394Z,77.78
2023-05-05T01:28:20.304Z,78.02
2023-05-05T01:31:18.807Z,78.31
2023-05-05T01:33:50.670Z,78.34
2023-05-05T01:36:24.402Z,78.26
2023-05-05T01:38:57.978Z,78.04
2023-05-05T01:41:29.211Z,77.89
2023-05-05T01:43:59.159Z,77.73
2023-05-05T01:46:28.047Z,80.18
2023-05-05T01:48:57.763Z,80.01
2023-05-05T01:51:28.053Z,80.50
2023-05-05T01:53:59.088Z,79.99
2023-05-05T01:56:27.623Z,80.66
2023-05-05T01:58:56.529Z,80.74
2023-05-05T02:01:26.983Z,80.28
2023-05-05T02:03:57.761Z,81.75
2023-05-05T02:06:26.784Z,81.21
2023-05-05T02:08:55.305Z,80.85
2023-05-05T02:11:22.998Z,80.83
2023-05-05T02:13:51.935Z,80.82
2023-05-05T02:16:20.643Z,81.12
2023-05-05T02:18:49.347Z,80.53
2023-05-05T02:21:18.677Z,80.70
2023-05-05T02:23:47.078Z,79.38
2023-05-05T02:26:16.799Z,79.73
2023-05-05T02:28:49.737Z,79.21
2023-05-05T02:31:18.738Z,79.56
2023-05-05T02:33:48.289Z,79.45
2023-05-05T02:36:21.793Z,79.12
2023-05-05T02:38:54.010Z,78.40
2023-05-05T02:41:22.537Z,79.32
2023-05-05T02:43:52.024Z,78.92
2023-05-05T02:46:19.438Z,78.36
2023-05-05T02:48:46.905Z,78.42
2023-05-05T02:51:14.340Z,78.60
2023-05-05T02:53:43.209Z,78.24
2023-05-05T02:56:18.996Z,78.33
2023-05-05T02:58:52.500Z,79.45
2023-05-05T03:01:30.407Z,79.80
2023-05-05T03:04:05.434Z,78.59
2023-05-05T03:06:40.196Z,79.45
2023-05-05T03:09:13.111Z,80.78
2023-05-05T03:11:48.368Z,81.15
2023-05-05T03:14:19.184Z,81.07
2023-05-05T03:16:48.211Z,80.96
2023-05-05T03:19:19.300Z,81.13
2023-05-05T03:21:49.019Z,80.72
2023-05-05T03:24:19.014Z,80.83
2023-05-05T03:26:47.727Z,79.69
2023-05-05T03:29:15.665Z,79.81
2023-05-05T03:31:43.447Z,80.45
2023-05-05T03:34:10.998Z,79.82
2023-05-05T03:36:39.466Z,80.45
2023-05-05T03:39:06.886Z,80.35
2023-05-05T03:41:35.770Z,81.60
2023-05-05T03:44:03.161Z,82.13
2023-05-05T03:46:30.593Z,81.69
2023-05-05T03:48:58.053Z,82.42
2023-05-05T03:51:25.984Z,81.27
2023-05-05T03:53:53.790Z,81.06
2023-05-05T03:56:21.181Z,80.28
2023-05-05T03:58:49.911Z,81.01
2023-05-05T04:01:17.270Z,80.15
2023-05-05T04:03:44.769Z,80.69
2023-05-05T04:06:15.274Z,79.75
2023-05-05T04:08:42.662Z,80.13
2023-05-05T04:11:10.112Z,79.37
2023-05-05T04:13:37.487Z,79.38
2023-05-05T04:16:06.677Z,78.56
2023-05-05T04:18:34.046Z,77.80
2023-05-05T04:21:01.691Z,77.23
2023-05-05T04:23:29.049Z,77.73
2023-05-05T04:25:56.894Z,76.50
2023-05-05T04:28:24.292Z,76.32
2023-05-05T04:30:51.789Z,75.99
2023-05-05T04:33:20.572Z,76.05
2023-05-05T04:35:48.300Z,74.65
2023-05-05T04:38:15.690Z,74.31
2023-05-05T04:40:43.272Z,73.31
2023-05-05T04:43:10.649Z,73.15
2023-05-05T04:45:38.409Z,72.79
2023-05-05T04:48:06.754Z,73.25
2023-05-05T04:50:35.520Z,72.79
2023-05-05T04:53:03.030Z,71.69
2023-05-05T04:55:30.449Z,69.42
2023-05-05T04:57:57.867Z,69.58
2023-05-05T05:00:25.321Z,68.84
2023-05-05T05:02:53.343Z,70.47
2023-05-05T05:05:21.552Z,69.35
2023-05-05T05:07:50.661Z,68.17
2023-05-05T05:10:18.247Z,69.69
2023-05-05T05:12:45.745Z,68.15
2023-05-05T05:15:14.126Z,69.04
2023-05-05T05:17:41.559Z,67.71
2023-05-05T05:20:09.906Z,67.16
2023-05-05T05:22:38.760Z,67.52
2023-05-05T05:25:08.010Z,69.09
2023-05-05T05:27:35.384Z,68.61
2023-05-05T05:30:03.093Z,68.20
2023-05-05T05:32:30.610Z,68.03
2023-05-05T05:34:58.021Z,66.36
2023-05-05T05:37:25.403Z,64.45
2023-05-05T05:39:53.076Z,62.69
2023-05-05T05:42:21.867Z,61.23
2023-05-05T05:44:49.280Z,60.99
2023-05-05T05:47:16.637Z,60.11
2023-05-05T05:49:44.111Z,57.90
2023-05-05T05:52:11.529Z,59.21
2023-05-05T05:54:38.914Z,59.14
2023-05-05T05:57:06.947Z,58.93
2023-05-05T05:59:35.678Z,60.54
2023-05-05T06:02:04.742Z,60.16
2023-05-05T06:04:32.424Z,59.39
2023-05-05T06:07:00.146Z,59.29
2023-05-05T06:09:27.536Z,58.01
2023-05-05T06:11:54.908Z,59.39
2023-05-05T06:14:22.265Z,60.18
2023-05-05T06:16:52.168Z,56.85
2023-05-05T06:19:19.541Z,56.09
2023-05-05T06:21:46.943Z,55.74
2023-05-05T06:24:14.343Z,55.38
2023-05-05T06:26:41.714Z,54.47
2023-05-05T06:29:10.513Z,52.23
2023-05-05T06:31:39.619Z,52.90
2023-05-05T06:34:08.443Z,52.37
2023-05-05T06:36:35.927Z,52.68
2023-05-05T06:39:03.315Z,53.07
2023-05-05T06:41:30.702Z,53.48
2023-05-05T06:43:58.064Z,53.40
2023-05-05T06:46:25.926Z,51.67
2023-05-05T06:48:53.348Z,51.62
2023-05-05T06:51:22.671Z,52.82
2023-05-05T06:53:50.168Z,52.86
2023-05-05T06:56:17.582Z,51.66
2023-05-05T06:58:44.980Z,50.20
2023-05-05T07:01:12.399Z,49.15
2023-05-05T07:03:39.995Z,50.50
2023-05-05T07:06:07.922Z,49.04
2023-05-05T07:08:36.699Z,48.39
2023-05-05T07:11:04.291Z,47.36
2023-05-05T07:13:31.673Z,47.29
2023-05-05T07:15:59.403Z,46.18
2023-05-05T07:18:26.817Z,46.43
2023-05-05T07:20:54.493Z,45.62
2023-05-05T07:23:22.006Z,45.88
2023-05-05T07:25:50.841Z,44.56
2023-05-05T07:28:18.488Z,44.82
2023-05-05T07:30:45.871Z,44.30
2023-05-05T07:33:14.437Z,44.69
2023-05-05T07:35:41.847Z,44.09
2023-05-05T07:38:10.798Z,43.26
2023-05-05T07:40:38.392Z,44.27
2023-05-05T07:43:07.811Z,43.08
2023-05-05T07:45:35.317Z,43.56
2023-05-05T07:48:02.822Z,43.61
2023-05-05T07:50:30.292Z,42.51
2023-05-05T07:53:10.916Z,41.98
2023-05-05T07:55:41.860Z,41.92
2023-05-05T07:58:11.606Z,41.00
2023-05-05T08:00:39.446Z,41.05
2023-05-05T08:03:09.734Z,40.78
2023-05-05T08:05:38.936Z,41.45
2023-05-05T08:08:06.963Z,40.81
2023-05-05T08:10:34.361Z,39.67
2023-05-05T08:13:01.802Z,39.20
2023-05-05T08:15:30.656Z,40.11
2023-05-05T08:17:58.142Z,38.07
2023-05-05T08:20:29.370Z,38.30
2023-05-05T08:22:56.940Z,39.12
2023-05-05T08:25:26.798Z,37.29
2023-05-05T08:27:54.441Z,37.15
2023-05-05T08:30:22.226Z,36.73
2023-05-05T08:32:51.042Z,37.39
2023-05-05T08:35:18.767Z,36.68
2023-05-05T08:37:46.221Z,36.99
2023-05-05T08:40:14.980Z,35.76
2023-05-05T08:42:42.518Z,36.46
2023-05-05T08:45:11.499Z,35.45
2023-05-05T08:47:40.254Z,35.90
2023-05-05T08:50:11.729Z,36.43
2023-05-05T08:52:41.270Z,35.49
2023-05-05T08:55:15.171Z,34.75
2023-05-05T08:57:47.463Z,33.85
2023-05-05T09:00:16.183Z,34.02
2023-05-05T09:02:44.276Z,33.64
2023-05-05T09:05:13.273Z,33.30
2023-05-05T09:07:41.346Z,32.46
2023-05-05T09:10:11.131Z,32.40
2023-05-05T09:12:41.192Z,32.55
2023-05-05T09:15:10.192Z,32.89
2023-05-05T09:17:38.921Z,33.05
2023-05-05T09:20:08.722Z,32.86
2023-05-05T09:22:39.015Z,34.00
2023-05-05T09:25:08.360Z,32.96
2023-05-05T09:27:40.766Z,32.51
2023-05-05T09:30:09.533Z,32.48
2023-05-05T09:32:45.165Z,31.49
2023-05-05T09:35:12.713Z,33.05
2023-05-05T09:37:41.619Z,32.41
2023-05-05T09:40:10.721Z,31.62
2023-05-05T09:42:39.067Z,32.39
2023-05-05T09:45:26.423Z,33.09
2023-05-05T09:47:59.115Z,32.73
2023-05-05T09:50:30.514Z,32.58
2023-05-05T09:53:01.423Z,32.47
2023-05-05T09:55:29.247Z,32.76
2023-05-05T09:57:56.706Z,31.94
2023-05-05T10:00:38.275Z,32.93
2023-05-05T10:03:05.787Z,33.91
2023-05-05T10:05:33.282Z,33.08
2023-05-05T10:08:13.504Z,31.85
2023-05-05T10:10:48.265Z,31.57
2023-05-05T10:13:19.014Z,31.68
2023-05-05T10:15:48.094Z,30.38
2023-05-05T10:18:18.104Z,31.26
2023-05-05T10:20:49.157Z,31.39
2023-05-05T10:23:20.294Z,31.61
2023-05-05T10:25:54.619Z,32.86
2023-05-05T10:28:30.565Z,32.64
2023-05-05T10:31:02.144Z,32.32
2023-05-05T10:33:36.640Z,31.13
2023-05-05T10:36:07.558Z,31.10
2023-05-05T10:38:37.058Z,29.37
2023-05-05T10:41:04.910Z,28.46
2023-05-05T10:43:32.405Z,30.06
2023-05-05T10:46:00.515Z,29.58
2023-05-05T10:48:33.723Z,29.22
2023-05-05T10:51:11.989Z,29.58
2023-05-05T10:53:45.598Z,28.54
2023-05-05T10:56:20.422Z,29.29
2023-05-05T10:58:58.863Z,30.00
2023-05-05T11:01:33.197Z,29.10
2023-05-05T11:04:20.831Z,29.05
2023-05-05T11:07:22.512Z,29.08
2023-05-05T11:09:58.906Z,28.17
2023-05-05T11:12:26.375Z,28.50
2023-05-05T11:15:37.384Z,29.32
2023-05-05T11:18:07.914Z,28.77
2023-05-05T11:21:16.022Z,30.44
2023-05-05T11:23:45.925Z,28.37
2023-05-05T11:26:15.908Z,28.29
2023-05-05T11:29:01.596Z,28.78
2023-05-05T11:31:30.640Z,29.13
2023-05-05T11:36:41.888Z,29.56
2023-05-05T11:39:19.957Z,29.21
2023-05-05T11:42:12.458Z,28.26
2023-05-05T11:44:40.081Z,28.56
2023-05-05T11:47:28.675Z,29.20
2023-05-05T11:49:56.673Z,28.58
2023-05-05T11:52:28.269Z,28.74
2023-05-05T11:55:01.665Z,28.60
2023-05-05T11:57:31.109Z,27.04
2023-05-05T12:00:01.201Z,27.66
2023-05-05T12:02:29.975Z,27.08
2023-05-05T12:04:58.207Z,26.93
2023-05-05T12:07:27.409Z,27.97
2023-05-05T12:09:55.979Z,27.55
2023-05-05T12:12:36.813Z,28.05
2023-05-05T12:15:05.391Z,28.35
2023-05-05T12:17:39.220Z,27.61
2023-05-05T12:20:08.697Z,26.55
2023-05-05T12:22:36.536Z,26.50
2023-05-05T12:25:05.584Z,25.93
2023-05-05T12:27:33.291Z,26.66
2023-05-05T12:30:14.685Z,26.64
2023-05-05T12:32:42.281Z,26.94
2023-05-05T12:35:11.640Z,27.90
2023-05-05T12:37:39.174Z,27.41
2023-05-05T12:40:08.773Z,27.25
2023-05-05T12:42:40.146Z,26.97
2023-05-05T12:45:17.524Z,27.53
2023-05-05T12:47:46.282Z,28.16
2023-05-05T12:50:13.711Z,27.40
2023-05-05T12:52:45.445Z,27.30
2023-05-05T12:55:13.482Z,27.34
2023-05-05T12:58:02.010Z,27.33
2023-05-05T13:00:29.653Z,26.91
2023-05-05T13:02:58.635Z,26.73
2023-05-05T13:05:33.314Z,26.96
2023-05-05T13:08:00.754Z,26.97
2023-05-05T13:10:28.401Z,26.42
2023-05-05T13:12:56.636Z,26.23
2023-05-05T13:15:24.092Z,26.60
2023-05-05T13:17:51.510Z,25.58
2023-05-05T13:20:20.291Z,26.31
2023-05-05T13:22:47.755Z,27.21
2023-05-05T13:25:15.155Z,26.94
2023-05-05T13:27:42.701Z,27.96
2023-05-05T13:30:11.176Z,26.13
2023-05-05T13:32:38.720Z,27.50
2023-05-05T13:35:07.372Z,26.30
2023-05-05T13:37:36.322Z,26.32
2023-05-05T13:40:04.090Z,26.71
2023-05-05T13:42:31.524Z,27.37
2023-05-05T13:44:58.892Z,28.25
2023-05-05T13:47:26.443Z,27.14
2023-05-05T13:49:53.836Z,27.16
2023-05-05T13:52:21.195Z,27.38
2023-05-05T13:54:51.390Z,27.65
2023-05-05T13:57:18.777Z,29.11
2023-05-05T13:59:46.305Z,27.78
2023-05-05T14:02:13.707Z,28.07
2023-05-05T14:04:41.416Z,28.13
2023-05-05T14:07:08.851Z,27.50
2023-05-05T14:09:36.236Z,27.78
2023-05-05T14:12:06.103Z,27.84
2023-05-05T14:14:34.349Z,27.24
2023-05-05T14:17:01.862Z,26.87
2023-05-05T14:19:29.377Z,27.32
2023-05-05T14:21:57.487Z,27.91
2023-05-05T14:24:24.897Z,28.02
2023-05-05T14:26:52.294Z,28.51
2023-05-05T14:29:21.021Z,27.93
2023-05-05T14:31:48.448Z,28.05
2023-05-05T14:34:15.963Z,27.85
2023-05-05T14:36:43.380Z,27.77
2023-05-05T14:39:11.371Z,27.64
2023-05-05T14:41:38.842Z,27.26
2023-05-05T14:44:06.354Z,28.06
2023-05-05T14:46:35.321Z,28.83
2023-05-05T14:49:02.725Z,29.10
2023-05-05T14:51:30.223Z,27.70
2023-05-05T14:53:57.624Z,28.23
2023-05-05T14:56:26.462Z,29.27
2023-05-05T14:58:54.027Z,28.48
2023-05-05T15:01:21.655Z,28.11
2023-05-05T15:03:50.553Z,28.20
2023-05-05T15:06:17.972Z,28.37
2023-05-05T15:08:45.379Z,29.40
2023-05-05T15:11:13.717Z,28.91
2023-05-05T15:13:41.570Z,28.96
2023-05-05T15:16:09.384Z,28.66
2023-05-05T15:18:37.370Z,29.43
2023-05-05T15:21:06.436Z,28.32
2023-05-05T15:23:33.917Z,28.57
2023-05-05T15:26:01.420Z,28.21
2023-05-05T15:28:28.873Z,28.84
2023-05-05T15:30:56.563Z,28.76
2023-05-05T15:33:23.920Z,28.07
2023-05-05T15:35:51.307Z,28.83
2023-05-05T15:38:20.034Z,28.35
2023-05-05T15:40:50.092Z,28.74
2023-05-05T15:43:17.663Z,28.23
2023-05-05T15:45:45.844Z,27.36
2023-05-05T15:48:13.300Z,28.28
2023-05-05T15:50:40.702Z,27.85
2023-05-05T15:53:08.083Z,28.85
2023-05-05T15:55:37.934Z,28.55
2023-05-05T15:58:05.320Z,28.80
2023-05-05T16:00:32.700Z,28.39
2023-05-05T16:03:00.169Z,28.44
2023-05-05T16:05:27.639Z,28.50
2023-05-05T16:07:55.000Z,28.57
2023-05-05T16:10:22.587Z,28.69
2023-05-05T16:12:52.012Z,28.66
2023-05-05T16:15:19.579Z,28.37
2023-05-05T16:17:46.964Z,29.34
2023-05-05T16:20:14.752Z,29.17
2023-05-05T16:22:42.293Z,28.93
2023-05-05T16:25:10.350Z,28.90
2023-05-05T16:27:38.002Z,29.08
2023-05-05T16:30:08.721Z,29.31
2023-05-05T16:32:36.148Z,29.38
2023-05-05T16:35:03.749Z,29.66
2023-05-05T16:37:31.161Z,30.21
2023-05-05T16:39:58.858Z,30.27
2023-05-05T16:42:26.302Z,30.74
2023-05-05T16:44:53.718Z,31.04
2023-05-05T16:47:22.439Z,31.45
2023-05-05T16:49:50.229Z,31.39
2023-05-05T16:52:17.675Z,31.89
2023-05-05T16:54:45.159Z,32.69
2023-05-05T16:57:12.759Z,32.22
2023-05-05T16:59:41.627Z,32.80
2023-05-05T17:02:09.525Z,33.31
2023-05-05T17:04:38.315Z,33.00
2023-05-05T17:07:05.742Z,33.01
2023-05-05T17:09:33.212Z,33.32
2023-05-05T17:12:00.670Z,33.48
2023-05-05T17:14:28.149Z,33.83
2023-05-05T17:16:55.506Z,34.38
2023-05-05T17:19:22.880Z,34.24
2023-05-05T17:21:51.564Z,34.58
2023-05-05T17:24:18.951Z,34.65
2023-05-05T17:26:46.554Z,34.96
2023-05-05T17:29:15.054Z,35.11
2023-05-05T17:31:42.668Z,34.80
2023-05-05T17:34:10.098Z,34.52
2023-05-05T17:36:37.502Z,34.90
2023-05-05T17:39:06.403Z,34.88
2023-05-05T17:41:33.948Z,35.56
2023-05-05T17:44:01.303Z,35.16
2023-05-05T17:46:28.889Z,34.87
2023-05-05T17:48:56.411Z,35.73
2023-05-05T17:51:23.816Z,35.10
2023-05-05T17:53:51.185Z,35.26
2023-05-05T17:56:19.945Z,36.23
2023-05-05T17:58:48.113Z,35.67
2023-05-05T18:01:22.133Z,35.93
2023-05-05T18:03:52.898Z,35.58
2023-05-05T18:06:20.305Z,36.01
2023-05-05T18:08:47.721Z,37.96
2023-05-05T18:11:15.208Z,38.70
2023-05-05T18:13:44.194Z,39.37
2023-05-05T18:16:11.644Z,40.05
2023-05-05T18:18:40.500Z,40.86
2023-05-05T18:21:11.784Z,41.76
2023-05-05T18:23:39.268Z,42.53
2023-05-05T18:26:07.248Z,42.62
2023-05-05T18:28:34.622Z,42.81
2023-05-05T18:31:03.354Z,43.14
2023-05-05T18:33:30.791Z,43.00
2023-05-05T18:35:58.222Z,42.79
2023-05-05T18:38:25.702Z,43.26
2023-05-05T18:40:53.086Z,43.51
2023-05-05T18:43:20.810Z,43.48
2023-05-05T18:45:48.198Z,43.71
2023-05-05T18:48:16.943Z,43.75
2023-05-05T18:50:44.307Z,43.60
2023-05-05T18:53:13.557Z,43.79
2023-05-05T18:55:42.858Z,43.83
2023-05-05T18:58:13.839Z,43.84
2023-05-05T19:00:41.501Z,43.86
2023-05-05T19:03:08.890Z,43.90
2023-05-05T19:05:39.844Z,44.73
2023-05-05T19:08:07.374Z,44.16
2023-05-05T19:10:34.847Z,43.96
2023-05-05T19:13:02.529Z,44.04
2023-05-05T19:15:29.988Z,44.00
2023-05-05T19:17:57.491Z,44.20
2023-05-05T19:20:24.933Z,44.09
2023-05-05T19:22:53.670Z,44.76
2023-05-05T19:25:21.075Z,44.74
2023-05-05T19:27:48.461Z,44.53
2023-05-05T19:30:16.233Z,44.60
2023-05-05T19:32:44.199Z,44.39
2023-05-05T19:35:11.978Z,44.87
2023-05-05T19:37:39.622Z,44.86
2023-05-05T19:40:09.920Z,44.74
2023-05-05T19:42:37.589Z,44.76
2023-05-05T19:45:05.779Z,44.83
2023-05-05T19:47:33.386Z,44.83
2023-05-05T19:50:00.798Z,44.77
2023-05-05T19:52:28.248Z,45.07
2023-05-05T19:54:55.994Z,44.97
2023-05-05T19:57:24.744Z,44.92
2023-05-05T19:59:52.412Z,45.42
2023-05-05T20:02:21.831Z,45.63
2023-05-05T20:04:49.541Z,45.60
2023-05-05T20:07:17.831Z,45.39
2023-05-05T20:09:45.246Z,45.14
2023-05-05T20:12:13.307Z,45.71
2023-05-05T20:14:42.013Z,46.08
2023-05-05T20:17:09.498Z,46.00
2023-05-05T20:19:36.883Z,45.52
2023-05-05T20:22:04.346Z,46.36
2023-05-05T20:24:31.796Z,46.11
2023-05-05T20:26:59.197Z,46.87
2023-05-05T20:29:26.739Z,46.60
2023-05-05T20:34:24.843Z,47.07
2023-05-05T20:36:52.440Z,49.08
2023-05-05T20:39:19.848Z,48.80
2023-05-05T20:41:47.300Z,49.82
2023-05-05T20:44:14.680Z,51.58
2023-05-05T20:46:43.849Z,51.92
2023-05-05T20:49:12.668Z,55.54
2023-05-05T20:51:40.054Z,54.58
2023-05-05T20:54:07.483Z,57.12
2023-05-05T20:56:34.876Z,57.51
2023-05-05T20:59:02.380Z,54.10
2023-05-05T21:01:29.882Z,57.65
2023-05-05T21:03:57.307Z,51.47
2023-05-05T21:06:26.010Z,54.95
2023-05-05T21:08:53.445Z,56.59
2023-05-05T21:11:21.443Z,56.93
2023-05-05T21:13:48.821Z,54.26
2023-05-05T21:16:16.324Z,51.54
2023-05-05T21:18:46.579Z,52.45
2023-05-05T21:21:13.998Z,52.20
2023-05-05T21:23:42.755Z,51.82
2023-05-05T21:26:10.368Z,51.04
2023-05-05T21:28:37.754Z,50.90
2023-05-05T21:31:21.350Z,50.85
2023-05-05T21:33:49.568Z,52.67
2023-05-05T21:36:18.980Z,53.54
2023-05-05T21:38:47.752Z,52.69
2023-05-05T21:41:15.112Z,52.88
2023-05-05T21:43:42.494Z,53.32
2023-05-05T21:46:09.925Z,52.82
2023-05-05T21:48:38.699Z,54.62
2023-05-05T21:51:06.682Z,53.42
2023-05-05T21:53:34.175Z,53.39
2023-05-05T21:56:03.143Z,52.76
2023-05-05T21:58:30.593Z,54.37
2023-05-05T22:00:58.014Z,53.81
2023-05-05T22:03:26.085Z,55.94
2023-05-05T22:05:53.664Z,56.96
2023-05-05T22:08:21.093Z,55.62
2023-05-05T22:10:48.500Z,55.14
2023-05-05T22:13:17.370Z,53.97
2023-05-05T22:15:47.298Z,53.85
2023-05-05T22:18:15.271Z,53.87
2023-05-05T22:20:43.276Z,54.93
2023-05-05T22:23:10.720Z,55.98
2023-05-05T22:25:38.117Z,56.88
2023-05-05T22:28:05.818Z,57.38
2023-05-05T22:30:34.548Z,59.21
2023-05-05T22:33:02.002Z,58.39
2023-05-05T22:35:29.478Z,58.82
2023-05-05T22:37:56.904Z,59.45
2023-05-05T22:40:24.333Z,60.36
2023-05-05T22:42:51.832Z,60.69
2023-05-05T22:45:19.356Z,61.65
2023-05-05T22:47:48.167Z,65.89
2023-05-05T22:50:15.937Z,68.22
2023-05-05T22:52:43.331Z,72.08
2023-05-05T22:55:12.705Z,69.94
2023-05-05T22:57:40.636Z,69.96
2023-05-05T23:00:10.706Z,71.62
2023-05-05T23:02:38.493Z,74.14
2023-05-05T23:05:07.943Z,73.37
2023-05-05T23:07:35.604Z,76.47
2023-05-05T23:10:03.116Z,75.37
2023-05-05T23:12:30.607Z,70.55
2023-05-05T23:14:57.989Z,67.51
2023-05-05T23:17:25.468Z,67.29
2023-05-05T23:19:52.837Z,74.99
2023-05-05T23:22:21.541Z,79.13
2023-05-05T23:24:48.939Z,77.16
2023-05-05T23:27:16.380Z,78.48
2023-05-05T23:29:43.742Z,78.77
2023-05-05T23:32:11.135Z,79.13
2023-05-05T23:34:38.530Z,79.53
2023-05-05T23:37:06.428Z,80.07
2023-05-05T23:39:36.469Z,81.46
2023-05-05T23:42:04.172Z,83.75
2023-05-05T23:44:31.538Z,83.03
2023-05-05T23:46:58.951Z,82.79
2023-05-05T23:49:26.412Z,84.04
2023-05-05T23:51:53.834Z,87.35
2023-05-05T23:54:21.377Z,86.95
2023-05-05T23:56:50.177Z,86.50
2023-05-05T23:59:17.830Z,88.96
